METAR Data
IDs: Format: Raw Decoded Include TAF

Data at: 1057 UTC 28 Jul 2021

KHMT 281035Z AUTO 00000KT 10SM CLR 20/17 A3002 RMK AO2 T02000169
KHMT 281015Z AUTO 00000KT 10SM CLR 21/17 A3002 RMK AO2 T02130166
KHMT 280955Z AUTO 00000KT 10SM CLR 22/17 A3002 RMK AO2 T02180171
KHMT 280935Z AUTO 00000KT 10SM CLR 22/17 A3002 RMK AO2 T02180171
KHMT 280915Z AUTO 00000KT 10SM CLR 21/17 A3003 RMK AO2 T02130173
KHMT 280855Z AUTO 20003KT 10SM CLR 21/17 A3003 RMK AO2 T02120173
KHMT 280835Z AUTO 00000KT 10SM CLR 21/17 A3002 RMK AO2 T02120173
KHMT 280815Z AUTO 00000KT 10SM CLR 21/17 A3002 RMK AO2 T02150172
KHMT 280755Z AUTO 00000KT 10SM CLR 22/17 A3003 RMK AO2 T02180171
KHMT 280735Z AUTO 00000KT 10SM CLR 22/17 A3003 RMK AO2 T02230171
KHMT 280715Z AUTO 00000KT 10SM CLR 23/17 A3003 RMK AO2 T02310172
KHMT 280655Z AUTO 00000KT 10SM CLR 23/17 A3004 RMK AO2 T02300171
KHMT 280635Z AUTO 17003KT 10SM CLR 23/17 A3003 RMK AO2 T02270173
KHMT 280615Z AUTO 22003KT 10SM CLR 23/17 A3003 RMK AO2 T02280168
KHMT 280555Z AUTO 25003KT 10SM CLR 23/17 A3004 RMK AO2 T02260170 10344 20222
KHMT 280535Z AUTO 25004KT 10SM CLR 23/17 A3004 RMK AO2 T02320171
KHMT 280515Z AUTO 23003KT 10SM CLR 24/17 A3004 RMK AO2 T02360169
KHMT 280455Z AUTO 19003KT 10SM CLR 24/17 A3004 RMK AO2 T02390170
KHMT 280435Z AUTO 21005KT 10SM CLR 24/17 A3004 RMK AO2 T02350171
KHMT 280415Z AUTO 23006KT 10SM CLR 24/17 A3003 RMK AO2 T02400170
KHMT 280355Z AUTO 23005KT 10SM CLR 24/17 A3003 RMK AO2 T02440170
KHMT 280335Z AUTO 24007KT 10SM CLR 25/17 A3002 RMK AO2 T02490171
KHMT 280315Z AUTO 24008KT 10SM CLR 26/17 A3001 RMK AO2 T02570171
KHMT 280255Z AUTO 23007KT 10SM CLR 27/17 A3001 RMK AO2 T02680169
KHMT 280235Z AUTO 23008KT 10SM CLR 28/16 A2999 RMK AO2 T02820163
KHMT 280215Z AUTO 22010KT 10SM CLR 29/16 A2999 RMK AO2 T02940159
KHMT 280155Z AUTO 23008KT 10SM CLR 30/16 A2997 RMK AO2 T03040164
KHMT 280135Z AUTO 21008KT 10SM CLR 32/16 A2996 RMK AO2 T03150158
KHMT 280055Z AUTO 21015KT 10SM CLR 32/16 A2994 RMK AO2 T03250156
KHMT 280035Z AUTO 21013KT 10SM CLR 33/15 A2995 RMK AO2 T03330153
KHMT 280015Z AUTO 21015KT 10SM CLR 34/15 A2995 RMK AO2 T03360146
KHMT 272355Z AUTO 21013KT 10SM CLR 34/14 A2996 RMK AO2 T03410139 10375 20301 403750181
KHMT 272335Z AUTO 21015KT 10SM CLR 35/14 A2995 RMK AO2 T03480139
KHMT 272315Z AUTO 21014KT 10SM CLR 35/13 A2995 RMK AO2 T03530133
KHMT 272255Z AUTO 22018KT 10SM CLR 35/13 A2995 RMK AO2 T03540135
KHMT 272235Z AUTO 21014KT 10SM CLR 36/13 A2996 RMK AO2 T03600131
KHMT 272215Z AUTO 20014G24KT 10SM CLR 36/14 A2996 RMK AO2 T03570137
KHMT 272155Z AUTO 21018G22KT 10SM CLR 36/14 A2996 RMK AO2 T03610136
KHMT 272135Z AUTO 21016G20KT 10SM CLR 36/13 A2997 RMK AO2 T03650134
KHMT 272115Z AUTO 20015G21KT 10SM CLR 37/13 A2997 RMK AO2 T03670130
KHMT 272055Z AUTO 21014KT 10SM CLR 37/13 A2997 RMK AO2 T03680133
KHMT 272035Z AUTO 21014G18KT 10SM CLR 36/13 A2998 RMK AO2 T03640133
KHMT 272015Z AUTO 21006KT 10SM CLR 37/13 A2998 RMK AO2 T03660132
KHMT 271955Z AUTO 26009KT 10SM CLR 36/13 A2998 RMK AO2 T03590135
KHMT 271935Z AUTO 21007KT 180V250 10SM CLR 35/14 A2999 RMK AO2 T03550138
KHMT 271915Z AUTO 22008KT 10SM CLR 35/14 A2999 RMK AO2 T03530145
KHMT 271855Z AUTO 19006KT 10SM CLR 34/16 A2999 RMK AO2 T03400162
KHMT 271835Z AUTO 00000KT 10SM CLR 32/18 A3000 RMK AO2 T03240177
KHMT 271815Z AUTO 00000KT 10SM CLR 32/19 A3001 RMK AO2 T03180187
KHMT 271755Z AUTO 00000KT 7SM CLR 30/19 A3001 RMK AO2 T03040190 10309 20181
KHMT 271735Z AUTO 00000KT 7SM HZ CLR 30/19 A3001 RMK AO2 T02970190
KHMT 271715Z AUTO 00000KT 7SM HZ CLR 29/19 A3001 RMK AO2 T02920193
KHMT 271655Z AUTO 10003KT 7SM CLR 28/19 A3001 RMK AO2 T02820191
KHMT 271635Z AUTO 00000KT 7SM HZ CLR 27/19 A3001 RMK AO2 T02730190
KHMT 271615Z AUTO 00000KT 5SM HZ CLR 25/19 A3001 RMK AO2 T02550192
KHMT 271555Z AUTO 00000KT 1/4SM HZ VV002 25/19 A3002 RMK AO2 VIS M1/4V4 T02450194
KHMT 271535Z AUTO 00000KT 5SM HZ CLR 24/19 A3001 RMK AO2 T02360192
KHMT 271515Z AUTO 00000KT 3 1/2SM HZ CLR 22/20 A3001 RMK AO2 T02250195
KHMT 271455Z AUTO 00000KT 3 1/2SM BR CLR 21/19 A3001 RMK AO2 T02150194
KHMT 271435Z AUTO 00000KT 3 1/2SM BR CLR 20/19 A3001 RMK AO2 T02040192
KHMT 271415Z AUTO 00000KT 2 1/2SM BR CLR 20/19 A3001 RMK AO2 T01960195
KHMT 271355Z AUTO 00000KT 2 1/2SM BR CLR 19/ A3000 RMK AO2 T0191////
KHMT 271335Z AUTO 00000KT 2 1/2SM BR CLR 18/ A3000 RMK AO2 T0183////
KHMT 271315Z AUTO 00000KT 2 1/2SM BR CLR 18/ A3000 RMK AO2 T0183////
KHMT 271255Z AUTO 00000KT 3 1/2SM BR CLR 19/ A2999 RMK AO2 T0188////
KHMT 271235Z AUTO 00000KT CLR 19/ A2999 RMK AO2 T0187////
KHMT 271215Z AUTO 00000KT 2SM BR CLR 19/ A2999 RMK AO2 T0186////
KHMT 271155Z AUTO 00000KT 2SM BR CLR 19/ A2999 RMK AO2 T0187//// 10199 20186 70021
KHMT 271135Z AUTO 00000KT 3 1/2SM BR CLR 19/18 A2999 RMK AO2 T01900185
KHMT 271115Z AUTO 00000KT 4SM BR CLR 19/19 A2998 RMK AO2 T01950186
KHMT 271055Z AUTO 00000KT 3 1/2SM BR CLR 19/19 A2998 RMK AO2 T01920191
KHMT 271035Z AUTO 00000KT 3 1/2SM BR CLR 19/19 A2998 RMK AO2 T01890187
KHMT 271015Z AUTO 00000KT 4SM BR CLR 20/19 A2998 RMK AO2 T01960193
KHMT 270955Z AUTO 02003KT 3 1/2SM BR CLR 19/19 A2998 RMK AO2 T01950194
KHMT 270935Z AUTO 00000KT 2 1/2SM BR CLR 19/ A2998 RMK AO2 T0192////
KHMT 270915Z AUTO 00000KT 2 1/2SM BR CLR 19/ A2998 RMK AO2 T0191////
KHMT 270855Z AUTO 00000KT 3SM BR CLR 19/ A2998 RMK AO2 T0192////
KHMT 270835Z AUTO 22003KT 3SM BR CLR 19/ A2999 RMK AO2 T0190////
KHMT 270815Z AUTO 22003KT 2 1/2SM BR CLR 19/19 A2999 RMK AO2 T0191////
KHMT 270755Z AUTO 00000KT 3 1/2SM BR CLR 20/19 A2999 RMK AO2 T01960193
KHMT 270735Z AUTO 00000KT 3 1/2SM BR CLR 20/19 A3000 RMK AO2 T01970195
KHMT 270715Z AUTO 00000KT 3 1/2SM BR CLR 20/19 A3000 RMK AO2 T01970194
KHMT 270655Z AUTO 00000KT 3 1/2SM BR CLR 20/19 A3000 RMK AO2 T01970194
KHMT 270635Z AUTO 20003KT 3 1/2SM BR CLR 19/19 A3001 RMK AO2 T01950194
KHMT 270615Z AUTO 23003KT 3 1/2SM BR CLR 20/19 A3001 RMK AO2 T01960194
KHMT 270555Z AUTO 23006KT 4SM BR CLR 20/19 A3001 RMK AO2 T01970194 10267 20197
KHMT 270535Z AUTO 22005KT 4SM BR CLR 20/19 A3001 RMK AO2 T01980194
KHMT 270515Z AUTO 22005KT 4SM BR CLR 20/19 A3001 RMK AO2 T01980194
KHMT 270455Z AUTO 21006KT 4SM BR CLR 20/19 A3001 RMK AO2 T01990194
KHMT 270435Z AUTO 21008KT 5SM BR CLR 20/19 A3000 RMK AO2 T02000194
KHMT 270415Z AUTO 24006KT 5SM BR CLR 20/19 A3000 RMK AO2 T02010193
KHMT 270355Z AUTO 23010KT 5SM BR CLR 20/19 A2999 RMK AO2 T02010193
KHMT 270335Z AUTO 24009KT 5SM BR CLR 20/19 A2998 RMK AO2 T02020192
KHMT 270315Z AUTO 24010KT 5SM BR CLR 20/19 A2997 RMK AO2 T02030191
KHMT 270255Z AUTO 24012KT 7SM BR CLR 21/19 A2996 RMK AO2 T02070190
KHMT 270235Z AUTO 24011KT 10SM CLR 22/19 A2995 RMK AO2 T02180190
KHMT 270215Z AUTO 23010KT 10SM CLR 22/19 A2995 RMK AO2 T02250189
KHMT 270155Z AUTO 23011KT 10SM CLR 23/19 A2994 RMK AO2 T02340189
KHMT 270135Z AUTO 23012KT 10SM CLR 24/19 A2993 RMK AO2 T02410189
KHMT 270115Z AUTO 22011KT 10SM CLR 25/19 A2993 RMK AO2 T02470189
KHMT 270055Z AUTO 22015KT 10SM CLR 25/19 A2992 RMK AO2 T02520189
KHMT 270035Z AUTO 21015KT 10SM CLR 26/19 A2992 RMK AO2 T02580190
KHMT 270015Z AUTO 21013KT 10SM CLR 26/19 A2992 RMK AO2 T02630193
KHMT 262355Z AUTO 23013KT 10SM CLR 27/19 A2993 RMK AO2 T02670193 10311 20237 403110193
KHMT 262335Z AUTO 22015KT 10SM CLR 27/19 A2992 RMK AO2 T02690193
KHMT 262315Z AUTO 22017KT 10SM CLR 27/19 A2992 RMK AO2 T02710194